Time;durP1;ratioP1;P1;durP2;ratioP2;P2;SDS_P1;SDS_P2;PMS_P1;PMS_P2;Temp;Humidity;BMP_temperature;BMP_pressure;BME280_temperature;BME280_humidity;BME280_pressure;Samples;Min_cycle;Max_cycle;Signal;HPM_P1;HPM_P2
2021/10/27 00:00:00;;;;;;;7.03;5.00;;;6.50;98.50;;;;;;5095271;28;20349;-88
2021/10/27 00:02:28;;;;;;;6.67;5.33;;;6.50;98.30;;;;;;5087069;28;20222;-90
2021/10/27 00:04:56;;;;;;;6.67;5.47;;;6.50;98.10;;;;;;5098209;28;20192;-89
2021/10/27 00:07:23;;;;;;;8.20;5.10;;;6.40;98.00;;;;;;5089370;28;20663;-86
2021/10/27 00:09:50;;;;;;;6.77;5.40;;;6.40;98.50;;;;;;5089380;28;20246;-87
2021/10/27 00:12:17;;;;;;;7.03;4.60;;;6.40;98.30;;;;;;5094252;28;20587;-86
2021/10/27 00:14:45;;;;;;;6.83;4.93;;;6.30;98.20;;;;;;5091798;28;20575;-87
2021/10/27 00:17:12;;;;;;;5.90;4.93;;;6.30;98.30;;;;;;5091105;28;20231;-86
2021/10/27 00:19:40;;;;;;;6.80;5.03;;;6.20;98.30;;;;;;5091696;28;20558;-89
2021/10/27 00:22:07;;;;;;;5.07;4.57;;;6.10;98.50;;;;;;5091973;28;20591;-89
2021/10/27 00:24:34;;;;;;;7.70;4.87;;;6.20;98.60;;;;;;5094405;28;20199;-86
2021/10/27 00:27:02;;;;;;;6.90;5.10;;;6.20;98.50;;;;;;5087792;28;20221;-86
2021/10/27 00:29:29;;;;;;;7.47;5.17;;;6.30;98.40;;;;;;5087390;28;20664;-87
2021/10/27 00:31:56;;;;;;;7.03;4.97;;;6.20;98.30;;;;;;5085138;28;20232;-88
2021/10/27 00:34:23;;;;;;;5.47;4.87;;;6.20;98.20;;;;;;5101518;28;20188;-87
2021/10/27 00:36:52;;;;;;;5.70;4.90;;;6.20;98.30;;;;;;5091139;28;20235;-88
2021/10/27 00:39:19;;;;;;;5.50;4.60;;;6.10;98.30;;;;;;5093678;28;20204;-86
2021/10/27 00:41:46;;;;;;;6.53;4.90;;;6.10;98.30;;;;;;5087900;28;20235;-86
2021/10/27 00:44:21;;;;;;;6.07;4.63;;;6.00;98.40;;;;;;5087296;28;20561;-89
2021/10/27 00:46:48;;;;;;;5.73;4.30;;;5.90;98.60;;;;;;5096512;28;20269;-86
2021/10/27 00:49:15;;;;;;;7.53;4.83;;;5.90;98.70;;;;;;5095229;28;20202;-89
2021/10/27 00:51:42;;;;;;;6.77;4.83;;;6.00;98.60;;;;;;5090682;28;20231;-86
2021/10/27 00:54:11;;;;;;;7.03;4.80;;;6.00;98.30;;;;;;5102343;28;20195;-87
2021/10/27 00:56:38;;;;;;;5.73;4.30;;;6.00;98.10;;;;;;5092529;28;20238;-86
2021/10/27 00:59:06;;;;;;;5.30;4.40;;;5.90;97.90;;;;;;5096054;28;20197;-86
2021/10/27 01:01:33;;;;;;;4.90;4.40;;;5.90;98.20;;;;;;5109401;28;20230;-86
2021/10/27 01:04:01;;;;;;;5.67;4.40;;;5.90;98.30;;;;;;5105113;28;20225;-89
2021/10/27 01:06:28;;;;;;;7.00;5.07;;;5.90;97.90;;;;;;5086778;28;20220;-86
2021/10/27 01:08:55;;;;;;;6.13;4.37;;;6.00;97.90;;;;;;5083590;28;20573;-86
2021/10/27 01:11:24;;;;;;;5.47;4.50;;;5.90;97.80;;;;;;5083109;28;20206;-87
2021/10/27 01:13:51;;;;;;;5.37;4.27;;;6.00;97.70;;;;;;5092815;28;20307;-87
2021/10/27 01:16:18;;;;;;;6.87;4.60;;;6.00;97.60;;;;;;5088622;28;20200;-86
2021/10/27 01:18:45;;;;;;;5.67;4.27;;;6.00;97.60;;;;;;5088902;28;20205;-87
2021/10/27 01:21:13;;;;;;;6.60;4.30;;;5.90;97.60;;;;;;5089718;28;20197;-86
2021/10/27 01:23:40;;;;;;;5.77;4.57;;;6.00;97.60;;;;;;5087389;28;20199;-86
2021/10/27 01:26:09;;;;;;;5.40;4.20;;;6.00;97.40;;;;;;5082356;28;20227;-86
2021/10/27 01:28:40;;;;;;;6.57;4.63;;;5.90;97.50;;;;;;5086254;28;20240;-86
2021/10/27 01:31:08;;;;;;;5.43;4.13;;;5.90;97.70;;;;;;5090586;28;20884;-85
2021/10/27 01:33:35;;;;;;;5.63;4.30;;;5.80;97.80;;;;;;5095083;28;20227;-85
2021/10/27 01:36:03;;;;;;;6.40;4.57;;;5.80;97.50;;;;;;5100681;28;20207;-85
2021/10/27 01:38:32;;;;;;;5.57;4.03;;;5.90;97.40;;;;;;5097214;28;20220;-85
2021/10/27 01:40:59;;;;;;;6.87;4.53;;;5.90;97.30;;;;;;5098677;28;20204;-85
2021/10/27 01:43:26;;;;;;;4.90;4.10;;;5.90;97.30;;;;;;5099456;28;20224;-85
2021/10/27 01:45:54;;;;;;;5.90;4.60;;;5.80;97.20;;;;;;5093702;28;20206;-86
2021/10/27 01:48:21;;;;;;;6.27;4.30;;;5.80;97.30;;;;;;5101271;28;20212;-85
2021/10/27 01:50:48;;;;;;;5.93;4.40;;;5.80;97.30;;;;;;5100715;28;20209;-87
2021/10/27 01:53:16;;;;;;;5.17;3.90;;;5.70;97.10;;;;;;5083762;28;20220;-86
2021/10/27 01:55:44;;;;;;;5.80;4.10;;;5.70;97.10;;;;;;5084463;28;20585;-87
2021/10/27 01:58:11;;;;;;;5.30;4.20;;;5.70;97.20;;;;;;5087730;28;20238;-87
2021/10/27 02:00:38;;;;;;;4.90;4.10;;;5.60;97.30;;;;;;5092186;28;20212;-86
2021/10/27 02:03:05;;;;;;;5.50;4.20;;;5.60;97.20;;;;;;5080470;28;20240;-86
2021/10/27 02:05:32;;;;;;;5.60;3.90;;;5.60;97.20;;;;;;5088586;28;20204;-86
2021/10/27 02:07:59;;;;;;;5.53;4.00;;;5.60;97.20;;;;;;5089422;28;20220;-87
2021/10/27 02:10:26;;;;;;;5.17;4.20;;;5.60;97.30;;;;;;5090063;28;20201;-86
2021/10/27 02:12:55;;;;;;;4.57;3.93;;;5.50;97.20;;;;;;5083803;28;20231;-88
2021/10/27 02:15:22;;;;;;;5.23;4.13;;;5.50;97.20;;;;;;5091627;28;20215;-86
2021/10/27 02:17:49;;;;;;;6.47;4.27;;;5.50;97.20;;;;;;5093058;28;20237;-86
2021/10/27 02:20:16;;;;;;;6.20;3.83;;;5.50;97.00;;;;;;5090257;28;20262;-86
2021/10/27 02:22:44;;;;;;;4.37;3.90;;;5.40;97.00;;;;;;5084377;28;20224;-87
2021/10/27 02:25:11;;;;;;;5.00;4.20;;;5.30;97.30;;;;;;5086766;28;20254;-86
2021/10/27 02:27:38;;;;;;;5.30;3.87;;;5.30;97.40;;;;;;5089143;28;20247;-87
2021/10/27 02:30:08;;;;;;;5.70;3.97;;;5.20;97.50;;;;;;5089691;28;20710;-87
2021/10/27 02:32:36;;;;;;;4.00;3.40;;;5.20;97.70;;;;;;5089232;28;20255;-87
2021/10/27 02:35:03;;;;;;;6.93;4.13;;;5.20;97.70;;;;;;5084702;28;20280;-87
2021/10/27 02:37:30;;;;;;;5.20;3.87;;;5.30;97.70;;;;;;5083126;28;20231;-87
2021/10/27 02:39:57;;;;;;;5.10;4.00;;;5.20;97.70;;;;;;5094846;28;20269;-87
2021/10/27 02:42:24;;;;;;;4.47;4.07;;;5.30;97.70;;;;;;5084471;28;20585;-86
2021/10/27 02:44:51;;;;;;;4.30;3.80;;;5.40;97.50;;;;;;5085545;28;20678;-87
2021/10/27 02:47:19;;;;;;;4.07;3.67;;;5.40;97.60;;;;;;5078164;28;20237;-88
2021/10/27 02:49:46;;;;;;;5.07;3.77;;;5.40;97.10;;;;;;5087946;28;20552;-87
2021/10/27 02:52:13;;;;;;;4.20;3.80;;;5.40;97.10;;;;;;5094247;28;20235;-87
2021/10/27 02:54:40;;;;;;;5.53;3.77;;;5.30;97.30;;;;;;5090151;28;20208;-86
2021/10/27 02:57:07;;;;;;;4.97;3.53;;;5.20;97.50;;;;;;5083574;28;20216;-86
2021/10/27 02:59:34;;;;;;;4.27;3.80;;;5.20;97.60;;;;;;5080482;28;20675;-87
2021/10/27 03:02:01;;;;;;;4.70;3.70;;;5.30;97.40;;;;;;5083193;28;20226;-86
2021/10/27 03:04:30;;;;;;;4.40;3.70;;;5.20;97.10;;;;;;5085536;28;20201;-87
2021/10/27 03:06:57;;;;;;;5.03;3.60;;;5.30;97.10;;;;;;5089267;28;20699;-87
2021/10/27 03:09:24;;;;;;;4.47;3.80;;;5.30;97.40;;;;;;5082049;28;20200;-87
2021/10/27 03:11:53;;;;;;;5.50;3.60;;;5.30;97.20;;;;;;5086528;28;20224;-87
2021/10/27 03:14:20;;;;;;;3.90;3.30;;;5.20;97.10;;;;;;5084215;28;20197;-87
2021/10/27 03:16:47;;;;;;;4.63;3.40;;;5.20;97.10;;;;;;5092760;28;20228;-86
2021/10/27 03:19:14;;;;;;;4.53;3.40;;;5.20;96.90;;;;;;5088404;28;20282;-87
2021/10/27 03:21:42;;;;;;;3.70;3.30;;;5.20;96.80;;;;;;5084635;28;20239;-87
2021/10/27 03:24:09;;;;;;;4.07;3.30;;;5.20;96.80;;;;;;5083104;28;20202;-86
2021/10/27 03:26:36;;;;;;;4.10;3.70;;;5.20;96.90;;;;;;5088671;28;20224;-86
2021/10/27 03:29:04;;;;;;;4.50;3.90;;;5.20;96.90;;;;;;5086378;28;20486;-87
2021/10/27 03:31:31;;;;;;;3.87;3.30;;;5.00;97.10;;;;;;5081045;28;20229;-87
2021/10/27 03:33:58;;;;;;;4.47;4.03;;;5.10;97.20;;;;;;5086483;28;20599;-86
2021/10/27 03:36:25;;;;;;;10.70;5.20;;;5.10;97.10;;;;;;5085967;28;20215;-87
2021/10/27 03:38:53;;;;;;;7.40;5.50;;;5.10;97.00;;;;;;5089090;28;20200;-87
2021/10/27 03:41:20;;;;;;;8.70;6.33;;;5.10;96.70;;;;;;5086559;28;20204;-88
2021/10/27 03:43:47;;;;;;;9.07;4.93;;;5.10;96.80;;;;;;5085750;28;20200;-86
2021/10/27 03:46:14;;;;;;;6.30;4.93;;;5.00;96.80;;;;;;5085753;28;20203;-86
2021/10/27 03:48:42;;;;;;;4.97;4.13;;;5.10;96.80;;;;;;5089496;28;20204;-87
2021/10/27 03:51:11;;;;;;;5.57;4.40;;;5.10;96.80;;;;;;5088763;28;20279;-87
2021/10/27 03:53:38;;;;;;;5.57;4.50;;;5.10;96.80;;;;;;5089513;28;20232;-86
2021/10/27 03:56:07;;;;;;;5.10;3.83;;;5.00;96.70;;;;;;5095472;28;20670;-87
2021/10/27 03:58:35;;;;;;;4.77;3.97;;;5.00;96.80;;;;;;5087098;28;20616;-87
2021/10/27 04:01:03;;;;;;;5.27;3.83;;;4.80;96.70;;;;;;5091952;28;20232;-87
2021/10/27 04:03:30;;;;;;;4.30;3.60;;;4.70;97.20;;;;;;5092593;28;20232;-84
2021/10/27 04:05:57;;;;;;;3.70;3.40;;;4.70;97.60;;;;;;5093506;28;20571;-85
2021/10/27 04:08:24;;;;;;;4.40;3.90;;;4.70;97.30;;;;;;5093984;28;20220;-85
2021/10/27 04:10:51;;;;;;;4.20;3.47;;;4.80;97.30;;;;;;5097971;28;20193;-85
2021/10/27 04:13:21;;;;;;;4.70;3.30;;;4.90;96.90;;;;;;5093175;28;20235;-84
2021/10/27 04:15:48;;;;;;;5.40;3.53;;;4.90;96.80;;;;;;5100787;28;20204;-84
2021/10/27 04:18:15;;;;;;;4.50;3.27;;;4.90;96.70;;;;;;5084889;28;20233;-85
2021/10/27 04:20:43;;;;;;;4.07;3.60;;;4.90;96.70;;;;;;5092768;28;20200;-85
2021/10/27 04:23:10;;;;;;;3.83;3.10;;;4.90;96.80;;;;;;5088470;28;20226;-85
2021/10/27 04:25:37;;;;;;;6.70;3.20;;;4.80;96.90;;;;;;5090075;28;20201;-85
2021/10/27 04:28:05;;;;;;;4.53;3.40;;;4.70;97.00;;;;;;5086777;28;20232;-85
2021/10/27 04:30:34;;;;;;;4.87;3.40;;;4.70;96.90;;;;;;5087911;28;20217;-84
2021/10/27 04:33:01;;;;;;;3.37;3.07;;;4.70;96.80;;;;;;5088805;28;20212;-85
2021/10/27 04:35:29;;;;;;;4.93;3.30;;;4.60;96.70;;;;;;5091175;28;20710;-85
2021/10/27 04:37:57;;;;;;;5.53;3.40;;;4.70;97.00;;;;;;5090993;28;20220;-86
2021/10/27 04:40:24;;;;;;;4.37;3.00;;;4.70;96.90;;;;;;5085089;28;20224;-85
2021/10/27 04:42:51;;;;;;;5.77;3.27;;;4.60;97.00;;;;;;5095993;28;20232;-85
2021/10/27 04:45:19;;;;;;;4.63;3.20;;;4.60;97.20;;;;;;5088811;28;20200;-85
2021/10/27 04:47:49;;;;;;;3.80;3.20;;;4.50;97.00;;;;;;5089086;28;20226;-84
2021/10/27 04:50:16;;;;;;;5.20;3.20;;;4.40;97.60;;;;;;5093007;28;20237;-85
2021/10/27 04:52:43;;;;;;;4.57;3.57;;;4.50;97.60;;;;;;5092873;28;20220;-84
2021/10/27 04:55:10;;;;;;;3.70;3.20;;;4.60;97.40;;;;;;5081615;28;20207;-84
2021/10/27 04:57:37;;;;;;;3.63;3.10;;;4.60;97.20;;;;;;5082549;28;20271;-84
2021/10/27 05:00:05;;;;;;;4.47;3.53;;;4.70;96.90;;;;;;5093872;28;20203;-84
2021/10/27 05:02:32;;;;;;;3.47;3.00;;;4.60;96.80;;;;;;5087043;28;20235;-83
2021/10/27 05:05:04;;;;;;;4.70;3.53;;;4.60;96.80;;;;;;5083531;28;20795;-83
2021/10/27 05:07:30;;;;;;;4.83;3.30;;;4.60;96.60;;;;;;5081968;28;20232;-91
2021/10/27 05:09:58;;;;;;;8.10;3.50;;;4.60;96.20;;;;;;5089181;28;20752;-83
2021/10/27 05:12:25;;;;;;;5.00;3.07;;;4.40;96.40;;;;;;5095798;27;20714;-84
2021/10/27 05:14:52;;;;;;;5.83;2.97;;;4.30;96.90;;;;;;5091245;28;20197;-83
2021/10/27 05:17:20;;;;;;;4.37;3.10;;;4.20;97.00;;;;;;5088036;28;20676;-85
2021/10/27 05:19:48;;;;;;;3.00;2.70;;;4.30;97.20;;;;;;5084028;28;20304;-86
2021/10/27 05:22:17;;;;;;;3.57;3.10;;;4.20;97.50;;;;;;5089879;28;20239;-85
2021/10/27 05:24:44;;;;;;;5.33;3.20;;;4.30;97.60;;;;;;5089008;28;20196;-86
2021/10/27 05:27:12;;;;;;;6.50;3.03;;;4.40;97.40;;;;;;5083754;28;20223;-86
2021/10/27 05:29:39;;;;;;;4.17;3.53;;;4.40;97.00;;;;;;5094844;28;20295;-86
2021/10/27 05:32:08;;;;;;;6.33;3.53;;;4.40;97.00;;;;;;5088174;28;20238;-84
2021/10/27 05:34:35;;;;;;;3.80;3.20;;;4.30;97.00;;;;;;5089948;28;20197;-84
2021/10/27 05:37:02;;;;;;;5.27;3.27;;;4.30;97.20;;;;;;5090664;28;20605;-83
2021/10/27 05:39:32;;;;;;;5.77;3.33;;;4.40;97.20;;;;;;5097383;28;20244;-83
2021/10/27 05:42:00;;;;;;;4.67;3.47;;;4.40;97.10;;;;;;5091187;28;20281;-86
2021/10/27 05:44:27;;;;;;;3.60;3.10;;;4.40;97.10;;;;;;5089867;28;20292;-84
2021/10/27 05:46:56;;;;;;;4.07;3.23;;;4.40;97.10;;;;;;5091659;28;20224;-83
2021/10/27 05:49:27;;;;;;;6.73;3.47;;;4.30;97.00;;;;;;5085135;28;20648;-84
2021/10/27 05:51:57;;;;;;;8.50;3.17;;;4.20;97.30;;;;;;5082262;28;20221;-84
2021/10/27 05:57:10;;;;;;;4.60;3.10;;;4.20;97.70;;;;;;5088990;28;20672;-84
2021/10/27 05:59:37;;;;;;;5.90;3.00;;;4.20;97.90;;;;;;5091628;28;20230;-83
2021/10/27 06:02:04;;;;;;;4.57;3.10;;;4.30;97.70;;;;;;5086242;28;20231;-85
2021/10/27 06:04:37;;;;;;;4.97;3.50;;;4.30;97.50;;;;;;5088287;28;20196;-86
2021/10/27 06:07:04;;;;;;;3.80;3.07;;;4.30;97.20;;;;;;5096857;28;20592;-84
2021/10/27 06:09:31;;;;;;;5.87;3.50;;;4.30;97.20;;;;;;5093989;28;20201;-82
2021/10/27 06:12:03;;;;;;;8.80;3.30;;;4.30;97.40;;;;;;5095918;28;20684;-86
2021/10/27 06:14:32;;;;;;;5.50;3.77;;;4.30;97.50;;;;;;5093718;28;20196;-83
2021/10/27 06:16:59;;;;;;;6.47;3.30;;;4.50;97.60;;;;;;5102664;28;20243;-84
2021/10/27 06:19:26;;;;;;;6.33;3.97;;;4.50;97.10;;;;;;5082169;28;20196;-84
2021/10/27 06:21:53;;;;;;;5.87;3.93;;;4.50;96.90;;;;;;5089755;28;20277;-87
2021/10/27 06:24:20;;;;;;;5.70;3.40;;;4.50;97.10;;;;;;5089539;28;20200;-83
2021/10/27 06:26:48;;;;;;;4.33;3.40;;;4.50;97.20;;;;;;5089775;28;20247;-85
2021/10/27 06:29:21;;;;;;;5.93;3.20;;;4.70;97.00;;;;;;5093751;28;20258;-84
2021/10/27 06:31:54;;;;;;;4.77;3.27;;;4.70;96.80;;;;;;5092794;28;20224;-83
2021/10/27 06:34:29;;;;;;;4.63;3.10;;;4.70;96.90;;;;;;5087197;28;20204;-85
2021/10/27 06:37:09;;;;;;;5.13;3.20;;;4.70;97.00;;;;;;5086003;28;20251;-84
2021/10/27 06:47:49;;;;;;;4.27;2.97;;;4.90;97.20;;;;;;5089418;28;20856;-83
2021/10/27 06:50:16;;;;;;;5.37;3.27;;;5.00;97.10;;;;;;5091018;28;20584;-83
2021/10/27 06:52:43;;;;;;;5.07;3.30;;;5.10;97.00;;;;;;5087534;28;20239;-86
2021/10/27 06:55:10;;;;;;;3.67;2.93;;;5.20;97.00;;;;;;5098158;28;20238;-85
2021/10/27 06:57:38;;;;;;;4.67;3.20;;;5.30;96.90;;;;;;5091896;28;20220;-85
2021/10/27 07:00:14;;;;;;;6.40;3.40;;;5.20;97.20;;;;;;5083862;28;20663;-84
2021/10/27 07:03:06;;;;;;;4.73;2.97;;;5.10;97.50;;;;;;5091534;28;20224;-87
2021/10/27 07:05:56;;;;;;;5.63;2.90;;;5.20;97.70;;;;;;5086860;28;20200;-88
2021/10/27 07:16:42;;;;;;;5.13;3.40;;;5.70;97.60;;;;;;5090982;28;20801;-88
2021/10/27 07:19:09;;;;;;;3.93;2.90;;;5.80;97.50;;;;;;5098470;28;20600;-88
2021/10/27 07:21:39;;;;;;;3.90;3.27;;;6.00;97.50;;;;;;5089337;28;20232;-87
2021/10/27 07:24:06;;;;;;;4.73;3.30;;;6.10;97.50;;;;;;5097722;28;20238;-88
2021/10/27 07:26:35;;;;;;;5.67;3.17;;;6.10;97.30;;;;;;5095487;28;20232;-87
2021/10/27 07:29:04;;;;;;;4.63;2.97;;;6.20;97.40;;;;;;5092619;28;20231;-87
2021/10/27 07:31:31;;;;;;;5.27;2.80;;;6.30;97.50;;;;;;5086890;28;20614;-90
2021/10/27 07:34:03;;;;;;;4.57;3.33;;;6.40;97.60;;;;;;5093763;28;20222;-89
2021/10/27 07:42:12;;;;;;;6.67;3.20;;;6.60;97.80;;;;;;5096675;28;20608;-88
2021/10/27 07:44:39;;;;;;;6.27;3.33;;;6.70;97.80;;;;;;5098151;28;20717;-88
2021/10/27 07:47:06;;;;;;;5.87;3.27;;;6.70;97.90;;;;;;5100788;27;20231;-88
2021/10/27 07:49:33;;;;;;;4.40;3.30;;;6.70;98.00;;;;;;5093683;28;20312;-88
2021/10/27 07:52:00;;;;;;;7.13;3.60;;;6.80;98.10;;;;;;5096286;28;20224;-89
2021/10/27 07:54:29;;;;;;;6.03;3.08;;;7.00;98.30;;;;;;5094242;28;20227;-88
2021/10/27 07:56:56;;;;;;;5.97;3.27;;;7.00;98.20;;;;;;5094766;28;20577;-88
2021/10/27 07:59:24;;;;;;;4.40;3.10;;;7.20;98.30;;;;;;5099871;28;20193;-88
2021/10/27 08:01:56;;;;;;;3.38;2.95;;;7.30;98.20;;;;;;5098546;28;20227;-85
2021/10/27 08:04:23;;;;;;;4.18;3.08;;;7.40;98.20;;;;;;5103427;28;20306;-88
2021/10/27 08:06:52;;;;;;;8.10;3.20;;;7.60;98.20;;;;;;5090436;28;20702;-92
2021/10/27 08:09:20;;;;;;;8.10;3.45;;;7.70;98.10;;;;;;5090956;28;20223;-87
2021/10/27 08:11:49;;;;;;;7.97;3.40;;;7.90;97.70;;;;;;5093620;28;20220;-88
2021/10/27 08:14:16;;;;;;;5.22;3.40;;;7.90;97.60;;;;;;5099265;28;20215;-88
2021/10/27 08:16:45;;;;;;;6.18;3.20;;;8.00;97.50;;;;;;5092714;28;20951;-91
2021/10/27 08:19:12;;;;;;;6.43;2.92;;;8.20;97.40;;;;;;5099242;28;20201;-88
2021/10/27 08:21:39;;;;;;;5.75;3.30;;;8.30;97.30;;;;;;5091104;28;20813;-88
2021/10/27 08:24:07;;;;;;;4.15;3.35;;;8.40;96.90;;;;;;5102417;28;20272;-87
2021/10/27 08:26:34;;;;;;;3.88;2.97;;;8.70;96.20;;;;;;5102387;28;20711;-87
2021/10/27 08:29:12;;;;;;;5.95;3.28;;;8.90;95.90;;;;;;5089750;28;20221;-88
2021/10/27 08:31:42;;;;;;;4.22;3.33;;;9.10;95.80;;;;;;5108375;28;20245;-87
2021/10/27 08:34:15;;;;;;;5.32;3.22;;;9.20;94.30;;;;;;5106295;28;20210;-88
2021/10/27 08:36:42;;;;;;;5.57;3.10;;;9.40;94.40;;;;;;5098190;28;20240;-87
2021/10/27 08:39:10;;;;;;;4.88;3.10;;;9.80;94.10;;;;;;5102001;28;20535;-90
2021/10/27 08:41:39;;;;;;;6.10;3.13;;;10.30;92.10;;;;;;5097894;28;20225;-89
2021/10/27 08:44:09;;;;;;;5.65;3.05;;;10.90;90.50;;;;;;5102981;28;20193;-90
2021/10/27 08:46:37;;;;;;;4.03;3.50;;;11.10;87.00;;;;;;5102785;28;20223;-91
2021/10/27 08:49:07;;;;;;;8.20;4.13;;;11.10;83.20;;;;;;5103773;28;20320;-88
2021/10/27 08:51:45;;;;;;;7.10;3.78;;;11.20;82.90;;;;;;5100664;28;20227;-88
2021/10/27 08:54:13;;;;;;;5.65;3.42;;;11.50;83.20;;;;;;5098944;28;20204;-87
2021/10/27 08:56:42;;;;;;;5.72;4.20;;;12.20;81.00;;;;;;5082776;28;21194;-89
2021/10/27 08:59:17;;;;;;;5.70;3.60;;;13.20;76.50;;;;;;5102000;28;20700;-90
2021/10/27 09:01:58;;;;;;;6.28;3.40;;;14.40;66.60;;;;;;5091453;28;20601;-86
2021/10/27 09:04:39;;;;;;;7.03;3.63;;;16.00;55.30;;;;;;5097969;28;20203;-89
2021/10/27 09:07:18;;;;;;;4.75;3.45;;;18.40;43.10;;;;;;5095621;28;20223;-83
2021/10/27 09:10:00;;;;;;;5.65;3.90;;;20.80;32.70;;;;;;5102708;28;20214;-86
2021/10/27 10:04:07;;;;;;;8.23;4.63;;;20.80;26.50;;;;;;5088352;28;20238;-87
2021/10/27 10:06:38;;;;;;;8.35;4.47;;;21.10;25.60;;;;;;5092293;28;20235;-87
2021/10/27 10:09:07;;;;;;;6.20;4.10;;;21.00;26.90;;;;;;5079905;28;20948;-87
2021/10/27 10:11:35;;;;;;;11.73;4.18;;;20.70;26.50;;;;;;5087691;28;20277;-87
2021/10/27 10:14:04;;;;;;;7.18;3.85;;;20.80;26.60;;;;;;5088987;28;20572;-87
2021/10/27 10:16:33;;;;;;;8.10;3.70;;;20.70;26.40;;;;;;5106897;28;20219;-87
2021/10/27 10:19:12;;;;;;;6.60;3.95;;;21.00;27.00;;;;;;5092312;28;20239;-88
2021/10/27 10:21:44;;;;;;;6.90;3.85;;;21.00;26.40;;;;;;5094706;28;20228;-87
2021/10/27 10:24:37;;;;;;;5.10;4.05;;;20.30;27.40;;;;;;5095042;28;20291;-88
2021/10/27 10:27:08;;;;;;;5.90;4.05;;;19.90;28.50;;;;;;5088271;28;20224;-88
2021/10/27 10:29:45;;;;;;;8.27;4.07;;;19.70;31.80;;;;;;5094135;28;20298;-88
2021/10/27 10:32:29;;;;;;;6.40;4.00;;;19.60;31.80;;;;;;5090009;28;20282;-90
2021/10/27 10:35:00;;;;;;;6.10;4.13;;;20.00;28.30;;;;;;5087859;28;20283;-87
2021/10/27 10:37:33;;;;;;;6.68;4.22;;;20.10;29.70;;;;;;5087822;28;20273;-87
2021/10/27 10:40:08;;;;;;;7.55;4.28;;;20.00;28.30;;;;;;5088457;28;20726;-88
2021/10/27 10:42:52;;;;;;;5.30;3.90;;;19.90;31.20;;;;;;5088214;28;20227;-87
2021/10/27 10:57:18;;;;;;;7.95;4.18;;;19.10;31.30;;;;;;5085815;28;20251;-87
2021/10/27 11:26:14;;;;;;;6.75;5.28;;;15.30;53.60;;;;;;5070216;28;20181;-92
2021/10/27 11:39:45;;;;;;;5.50;4.70;;;15.40;51.70;;;;;;5088820;28;20235;-90
2021/10/27 11:42:24;;;;;;;8.55;5.20;;;15.40;52.70;;;;;;5089368;28;20228;-90
2021/10/27 11:47:38;;;;;;;6.20;4.72;;;15.60;51.90;;;;;;5081053;28;20221;-91
2021/10/27 11:50:13;;;;;;;7.78;4.80;;;15.60;51.90;;;;;;5089036;28;20266;-94
2021/10/27 11:52:41;;;;;;;6.72;4.90;;;15.50;51.80;;;;;;5084167;28;20248;-92
2021/10/27 11:55:12;;;;;;;8.32;5.32;;;15.40;51.70;;;;;;5085947;28;20574;-93
2021/10/27 11:57:41;;;;;;;6.38;3.95;;;15.50;53.20;;;;;;5088958;28;20240;-92
2021/10/27 12:03:15;;;;;;;6.95;4.28;;;15.50;51.80;;;;;;5094705;28;20220;-92
2021/10/27 12:05:55;;;;;;;6.32;4.80;;;15.40;51.70;;;;;;5091067;28;20212;-91
2021/10/27 12:14:00;;;;;;;6.55;4.53;;;15.10;55.00;;;;;;5082151;28;20220;-91
2021/10/27 12:19:21;;;;;;;7.28;5.60;;;15.30;55.70;;;;;;5092678;28;20209;-91
2021/10/27 12:21:53;;;;;;;5.80;5.07;;;15.30;54.90;;;;;;5098349;28;20228;-91
2021/10/27 12:24:24;;;;;;;7.05;5.10;;;15.40;57.20;;;;;;5098896;28;20248;-90
2021/10/27 12:27:00;;;;;;;7.53;5.55;;;15.20;55.80;;;;;;5100135;28;20228;-90
2021/10/27 12:29:29;;;;;;;7.22;5.30;;;15.30;56.90;;;;;;5104583;28;20314;-89
2021/10/27 12:32:11;;;;;;;7.63;5.88;;;15.20;58.20;;;;;;5097627;28;20604;-91
2021/10/27 12:34:47;;;;;;;7.82;5.50;;;15.10;61.00;;;;;;5093727;28;20204;-91
2021/10/27 12:37:37;;;;;;;9.60;5.88;;;15.10;59.90;;;;;;5092260;28;20265;-91
2021/10/27 12:40:18;;;;;;;11.88;6.78;;;15.10;60.30;;;;;;5092058;28;20560;-92
2021/10/27 12:42:57;;;;;;;7.68;5.53;;;15.10;60.00;;;;;;5092167;28;20216;-90
2021/10/27 12:45:32;;;;;;;8.15;5.28;;;15.20;60.10;;;;;;5103227;28;20248;-89
2021/10/27 12:48:04;;;;;;;11.43;5.95;;;14.90;63.50;;;;;;5087906;28;20319;-88
2021/10/27 12:50:32;;;;;;;6.47;5.78;;;15.10;62.80;;;;;;5089062;28;20216;-89
2021/10/27 12:53:02;;;;;;;8.48;6.30;;;15.10;61.20;;;;;;5084415;28;20229;-90
2021/10/27 12:55:32;;;;;;;8.88;6.05;;;15.10;60.90;;;;;;5085712;28;20228;-88
2021/10/27 12:58:06;;;;;;;8.57;5.63;;;15.20;61.60;;;;;;5079458;28;20740;-89
2021/10/27 13:01:08;;;;;;;7.93;5.30;;;15.20;61.50;;;;;;5093829;28;20574;-89
2021/10/27 13:06:37;;;;;;;7.63;5.28;;;15.10;58.80;;;;;;5087685;28;20202;-90
2021/10/27 13:14:48;;;;;;;6.32;5.63;;;15.10;60.10;;;;;;5091303;28;20200;-91
2021/10/27 13:20:16;;;;;;;6.55;5.45;;;15.00;60.30;;;;;;5106353;28;20232;-90
2021/10/27 13:31:01;;;;;;;5.80;5.20;;;14.90;59.40;;;;;;5087594;28;20216;-90
2021/10/27 13:33:29;;;;;;;7.40;5.22;;;15.10;58.40;;;;;;5093405;28;20226;-91
2021/10/27 13:35:58;;;;;;;7.00;5.47;;;15.00;58.30;;;;;;5094948;28;20196;-89
2021/10/27 13:38:31;;;;;;;8.85;5.78;;;15.00;58.30;;;;;;5078872;28;20671;-90
2021/10/27 13:40:59;;;;;;;8.10;5.68;;;14.90;59.00;;;;;;5090852;28;20201;-90
2021/10/27 13:43:29;;;;;;;7.57;5.30;;;14.90;58.80;;;;;;5091272;28;20234;-90
2021/10/27 13:48:53;;;;;;;8.43;5.63;;;14.90;57.70;;;;;;5097708;28;20224;-89
2021/10/27 14:07:57;;;;;;;8.30;5.40;;;14.70;58.60;;;;;;5097755;28;20678;-89
2021/10/27 14:10:33;;;;;;;6.85;5.80;;;14.70;59.10;;;;;;5106966;28;20211;-91
2021/10/27 14:13:10;;;;;;;7.65;6.20;;;14.60;60.00;;;;;;5101742;28;20257;-91
2021/10/27 14:15:59;;;;;;;6.65;5.80;;;14.50;62.30;;;;;;5102097;28;20230;-90
2021/10/27 14:18:38;;;;;;;6.70;5.07;;;14.50;61.20;;;;;;5095484;28;20212;-90
2021/10/27 15:51:19;;;;;;;18.38;13.07;;;12.60;85.50;;;;;;5317706;22;20224;-89
2021/10/27 15:53:57;;;;;;;17.85;13.88;;;12.50;87.40;;;;;;5082758;28;20225;-89
2021/10/27 15:56:25;;;;;;;19.27;15.25;;;12.40;90.00;;;;;;5071411;28;20194;-86
2021/10/27 15:58:52;;;;;;;21.33;16.35;;;12.30;90.80;;;;;;5072591;28;20197;-87
2021/10/27 16:01:19;;;;;;;19.70;15.85;;;12.10;91.30;;;;;;5076485;28;20243;-86
2021/10/27 16:03:46;;;;;;;22.42;15.85;;;12.10;91.80;;;;;;5068134;28;20289;-87
2021/10/27 16:06:15;;;;;;;23.38;17.70;;;12.00;92.20;;;;;;5068642;28;20255;-87
2021/10/27 16:08:46;;;;;;;21.42;17.33;;;11.80;92.60;;;;;;5056686;28;20271;-87
2021/10/27 16:11:14;;;;;;;21.50;17.15;;;11.80;93.00;;;;;;5070889;28;20217;-87
2021/10/27 16:13:42;;;;;;;20.48;17.77;;;11.70;93.40;;;;;;5055738;28;20230;-87
2021/10/27 16:16:11;;;;;;;23.02;18.30;;;11.60;93.70;;;;;;5054026;28;20281;-88
2021/10/27 16:18:38;;;;;;;23.75;18.88;;;11.50;94.00;;;;;;5037968;28;20313;-86
2021/10/27 16:21:05;;;;;;;24.70;18.45;;;11.40;94.70;;;;;;5058749;28;20212;-86
2021/10/27 16:23:32;;;;;;;27.73;20.55;;;11.30;95.00;;;;;;5062005;28;20304;-86
2021/10/27 16:26:00;;;;;;;23.52;19.23;;;11.20;95.40;;;;;;5064086;28;20256;-86
2021/10/27 16:28:28;;;;;;;29.13;21.33;;;11.20;96.00;;;;;;5064825;28;20677;-86
2021/10/27 16:30:56;;;;;;;26.88;20.15;;;11.10;96.00;;;;;;5063604;28;20711;-86
2021/10/27 16:33:24;;;;;;;26.00;21.45;;;11.00;96.00;;;;;;5061383;28;20681;-86
2021/10/27 16:35:52;;;;;;;31.58;22.63;;;11.00;96.20;;;;;;5056462;28;20671;-86
2021/10/27 16:38:20;;;;;;;32.88;22.52;;;10.90;96.60;;;;;;5057387;28;20272;-86
2021/10/27 16:40:47;;;;;;;30.65;22.23;;;10.90;96.80;;;;;;5059101;28;20631;-87
2021/10/27 16:43:15;;;;;;;32.08;22.17;;;10.80;96.90;;;;;;5065087;28;20218;-88
2021/10/27 16:45:43;;;;;;;30.73;22.88;;;10.80;97.20;;;;;;5054375;28;20236;-88
2021/10/27 16:48:11;;;;;;;36.00;24.75;;;10.70;97.40;;;;;;5059228;28;20228;-88
2021/10/27 16:50:38;;;;;;;31.77;22.77;;;10.60;97.50;;;;;;5051299;28;20225;-88
2021/10/27 16:53:05;;;;;;;31.48;23.60;;;10.50;97.70;;;;;;5065722;28;20642;-88
2021/10/27 16:55:32;;;;;;;32.40;23.10;;;10.50;98.00;;;;;;5061582;28;20747;-89
2021/10/27 16:58:01;;;;;;;28.83;23.90;;;10.40;98.10;;;;;;5057692;28;20581;-87
2021/10/27 17:00:30;;;;;;;32.30;23.80;;;10.30;98.30;;;;;;5053752;28;20201;-88
2021/10/27 17:02:59;;;;;;;33.80;24.45;;;10.30;98.60;;;;;;5053374;28;20229;-89
2021/10/27 17:05:26;;;;;;;31.83;23.88;;;10.20;98.50;;;;;;5050986;28;20194;-89
2021/10/27 17:07:53;;;;;;;32.45;24.80;;;10.20;98.60;;;;;;5046710;28;20773;-88
2021/10/27 17:10:20;;;;;;;35.08;23.67;;;10.10;98.90;;;;;;5049253;28;20220;-89
2021/10/27 17:12:47;;;;;;;33.03;25.10;;;10.00;99.10;;;;;;5055032;28;20391;-88
2021/10/27 17:15:17;;;;;;;34.47;25.85;;;10.00;99.20;;;;;;5052728;28;20194;-89
2021/10/27 17:17:45;;;;;;;33.60;24.83;;;9.90;99.60;;;;;;5055113;28;20281;-88
2021/10/27 17:20:17;;;;;;;33.35;25.05;;;9.90;99.70;;;;;;5055827;28;21303;-88
2021/10/27 17:22:47;;;;;;;31.90;25.27;;;9.80;99.80;;;;;;5052597;28;20316;-88
2021/10/27 17:25:16;;;;;;;38.88;25.70;;;9.80;99.90;;;;;;5054610;28;20202;-88
2021/10/27 17:27:46;;;;;;;32.75;25.92;;;9.80;99.90;;;;;;5049312;28;20222;-89
2021/10/27 17:30:16;;;;;;;36.65;26.50;;;9.70;99.90;;;;;;5042934;28;21304;-88